Burry Port, United Kingdom
Current Conditions -  °F | °C
As of 7:50 PM on Sunday 21 Dec 2014 (Local Time) from EGOP Reporting Station
Overcast Overcast  
Wind Chill: 52°   Ceiling: 300
Heat Index: 52°   Visibility: 2.2mi
Dew Point: 52°   Wind: 29mph
Humidity: 100%   Direction: 230°SW
Pressure: 30.18"   Gusts: NA
Location:  51.68°N, 4.25°W
Report Text: EGOP 211950Z AUTO 23025KT 3600 // OVC003/// 11/11 Q1022
Loading
Personal Weather Stations






























Interactive Weather Map New forecast layout! Learn more

10-Day Weather Forecast

Advertisements
Track Severe Weather on mobile